^^

Meteo Aereoporti Centro-Italia

 

 
LIRZ - Perugia S.Egidio (208 m.)
Dati ricevuti: 26/05/2017 10:50
Qualche nuvola
Qualche nuvola
 Vento da NNE
Vento: NNE 28 km/h
TEMPERATURA: 21°C
P.to di Rugiada: 7°C
Umidità: 40%
Pressione: 1019 hPa
Nuvole: Qualche nuvola
Visibilità: 10 km
Dettagli Nuvole: Qualche nuvola 1219 m
2017/05/26 08:50 LIRZ 260850Z 03015KT 9999 FEW040 21/07 Q1019
 
LIPY - Ancona Falconara (12 m.)
Dati ricevuti: 26/05/2017 10:50
Sereno
Sereno
 Vento da NNW
Vento: NNW 17 km/h
TEMPERATURA: 21°C
P.to di Rugiada: 13°C
Umidità: 60%
Pressione: 1019 hPa
Condizioni generali: Sereno
Visibilità: oltre 10 km
2017/05/26 08:50 LIPY 260850Z 34009KT 310V010 CAVOK 21/13 Q1019
 
LIPR - Rimini Miramare (12 m.)
Dati ricevuti: 26/05/2017 10:45
Sereno
Sereno
 Vento da NE
Vento: NE 7 km/h
TEMPERATURA: 21°C
P.to di Rugiada: 16°C
Umidità: 73%
Pressione: 1019 hPa
Condizioni generali: Sereno
Visibilità: oltre 10 km
2017/05/26 08:45 LIPR 260845Z 04004KT CAVOK 21/16 Q1019
 
LIRF - Roma Fiumicino (2 m.)
Dati ricevuti: 26/05/2017 10:50
Sereno
Sereno
 Vento da NE
Vento: NE 20 km/h
TEMPERATURA: 24°C
P.to di Rugiada: 5°C
Umidità: 29%
Pressione: 1017 hPa
Condizioni generali: Sereno
Visibilità: oltre 10 km
2017/05/26 08:50 LIRF 260850Z 05011KT CAVOK 24/05 Q1017 NOSIG
 
LIRA - Roma Ciampino (129 m.)
Dati ricevuti: 26/05/2017 10:50
Sereno
Sereno
 Vento da NNE
Vento: NNE 9 km/h
TEMPERATURA: 23°C
P.to di Rugiada: 5°C
Umidità: 31%
Pressione: 1017 hPa
Condizioni generali: Sereno
Visibilità: oltre 10 km
2017/05/26 08:50 LIRA 260850Z 03005KT 320V080 CAVOK 23/05 Q1017
 
LIRU - Roma Urbe (17 m.)
Dati ricevuti: 26/05/2017 10:50
Sereno
Sereno
 Vento da N
Vento: N 9 km/h
TEMPERATURA: 25°C
P.to di Rugiada: 7°C
Umidità: 32%
Pressione: 1017 hPa
Condizioni generali: Sereno
Visibilità: oltre 10 km
2017/05/26 08:50 LIRU 260850Z 36005KT CAVOK 25/07 Q1017
 
LIVF - Frontone (570 m.)
Dati ricevuti: 25/05/2017 07:55
Dati non aggiornati
Poco nuvoloso
Poco nuvoloso
 Vento da ENE
Vento: ENE 7 km/h
TEMPERATURA: 16°C
P.to di Rugiada: 13°C
Umidità: 83%
Pressione: 1016 hPa
Nuvole: Poco nuvoloso
Visibilità: 10 km
Dettagli Nuvole: Poco nuvoloso 30 m
Poco nuvoloso 853 m
2017/05/25 05:55 LIVF 250555Z 07004KT 9999 SCT001 SCT028 16/13 Q1016 RMK BKN MON S W CIME INC VAL W NEBBIA VIS MIN 9999
 
LIRQ - Firenze Peretola (40 m.)
Dati ricevuti: 26/05/2017 10:50
Sereno
Sereno
 Vento da direzione variabile
Vento: direzione variabile 6 km/h
TEMPERATURA: 24°C
P.to di Rugiada: 7°C
Umidità: 34%
Pressione: 1018 hPa
Condizioni generali: Sereno
Visibilità: oltre 10 km
2017/05/26 08:50 LIRQ 260850Z VRB03KT CAVOK 24/07 Q1018
 
LIBP - Pescara (10 m.)
Dati ricevuti: 26/05/2017 10:50
Qualche nuvola
Qualche nuvola
 Vento da N
Vento: N 17 km/h
TEMPERATURA: 21°C
P.to di Rugiada: 11°C
Umidità: 53%
Pressione: 1018 hPa
Nuvole: Qualche nuvola
Visibilità: 10 km
Dettagli Nuvole: Qualche nuvola 1829 m
2017/05/26 08:50 LIBP 260850Z 35009KT 300V020 9999 FEW060 21/11 Q1018
 
LIRV - Viterbo (300 m.)
Dati ricevuti: 26/05/2017 10:55
Sereno
Sereno
 Vento da NE
Vento: NE 24 km/h
TEMPERATURA: 21°C
P.to di Rugiada: 9°C
Umidità: 46%
Pressione: 1018 hPa
Condizioni generali: Sereno
Visibilità: oltre 10 km
2017/05/26 08:55 LIRV 260855Z 05013KT CAVOK 21/09 Q1018
 
LIQN - Rieti (389 m.)
Dati ricevuti: 26/05/2017 10:50
Sereno
Sereno
 Vento da direzione variabile
Vento: direzione variabile 6 km/h
TEMPERATURA: 18°C
P.to di Rugiada: 7°C
Umidità: 49%
Pressione: 1017 hPa
Condizioni generali: Sereno
Visibilità: oltre 10 km
2017/05/26 08:50 LIQN 260850Z VRB03KT CAVOK 18/07 Q1017
 
LIRG - Guidonia -RM- (88 m.)
Dati ricevuti: 26/05/2017 10:55
Qualche nuvola
Qualche nuvola
 Vento da N
Vento: N 6 km/h
TEMPERATURA: 23°C
P.to di Rugiada: 6°C
Umidità: 33%
Pressione: 1017 hPa
Nuvole: Qualche nuvola
Visibilità: 10 km
Dettagli Nuvole: Qualche nuvola 1067 m
2017/05/26 08:55 LIRG 260855Z 01003KT 9999 FEW035 23/06 Q1017
 
LIRK - Terminillo -RI-(1874 m.)
Dati ricevuti: 26/05/2017 09:55

 Vento da E
Vento: E 24 km/h
2017/05/26 07:55 LIRK 260755Z AUTO 09013KT 050V120 //// ///// Q////
 
LIPK - Forlì (27 m.)
Dati ricevuti: 26/05/2017 10:50
Sereno
Sereno
 Vento da E
Vento: E 11 km/h
TEMPERATURA: 23°C
P.to di Rugiada: 10°C
Umidità: 44%
Pressione: 1019 hPa
Condizioni generali: Sereno
Visibilità: oltre 10 km
2017/05/26 08:50 LIPK 260850Z 09006KT CAVOK 23/10 Q1019
 
LIRS - Grosseto (5 m.)
Dati ricevuti: 26/05/2017 10:55
Sereno
Sereno
 Vento da NE
Vento: NE 11 km/h
TEMPERATURA: 25°C
P.to di Rugiada: 7°C
Umidità: 32%
Pressione: 1018 hPa
Condizioni generali: Sereno
Visibilità: oltre 10 km
2017/05/26 08:55 LIRS 260855Z 05006KT CAVOK 25/07 Q1018
 
LIRP - Pisa S.Giusto (2 m.)
Dati ricevuti: 26/05/2017 10:45
Sereno
Sereno
 Vento da E
Vento: E 17 km/h
TEMPERATURA: 23°C
P.to di Rugiada: 12°C
Umidità: 50%
Pressione: 1018 hPa
Condizioni generali: Sereno
Visibilità: oltre 10 km
2017/05/26 08:45 LIRP 260845Z 10009KT CAVOK 23/12 Q1018 NOSIG